Alpha, Michigan
Current Conditions -  °F | °C
As of 6:54 PM on Thursday 18 Dec 2014 (Local Time) from KIMT Reporting Station
Clear Clear  
Wind Chill: 14°   Ceiling: Unl
Heat Index: 14°   Visibility: 10mi
Dew Point: 12°   Wind: 0mph
Humidity: 92%   Direction: NA
Pressure: 30.22"   Gusts: NA
Location:  46.04°N, 88.38°W
Report Text: KIMT 190054Z AUTO 00000KT 10SM CLR M10/M11 A3022 RMK AO2 SLP258 I1001 T11001111
Loading
Personal Weather Stations






























Interactive Weather Map New forecast layout! Learn more

10-Day Weather Forecast

Advertisements
Track Severe Weather on mobile